Terminal Aerodrome Forecast
Issued by NWS

Home | Current Version | Previous Version | Text Only | Print | Product List | Glossary On
Versions: 1 2 3 4 5 6 7 8 9 10 11 12
000
FTUS45 KRIW 241100
TAFBPI
TAF
KBPI 241122Z 2412/2512 VRB05KT P6SM FEW150
     FM241700 24011KT P6SM SCT120
     FM241900 27020G30KT P6SM SCT120
     FM250100 30011KT P6SM FEW120
     FM250500 35007KT P6SM SKC=

USA.gov is the U.S. government's official web portal to all federal, state and local government web resources and services.